createdAt,value
2022-07-29T00:02:16.575Z,19.78
2022-07-29T00:04:44.473Z,19.69
2022-07-29T00:07:12.340Z,19.64
2022-07-29T00:09:42.944Z,19.53
2022-07-29T00:12:25.715Z,19.44
2022-07-29T00:14:56.954Z,19.54
2022-07-29T00:17:25.396Z,19.45
2022-07-29T00:19:53.850Z,19.38
2022-07-29T00:22:22.279Z,19.57
2022-07-29T00:24:50.350Z,19.50
2022-07-29T00:27:19.313Z,19.49
2022-07-29T00:29:48.274Z,19.51
2022-07-29T00:32:16.855Z,19.54
2022-07-29T00:35:02.295Z,19.57
2022-07-29T00:37:30.125Z,19.43
2022-07-29T00:39:57.756Z,19.44
2022-07-29T00:42:25.975Z,19.47
2022-07-29T00:44:54.990Z,19.43
2022-07-29T00:47:23.562Z,19.32
2022-07-29T00:49:51.247Z,19.28
2022-07-29T00:52:19.655Z,19.53
2022-07-29T00:54:47.691Z,19.47
2022-07-29T00:57:16.249Z,19.53
2022-07-29T00:59:43.901Z,19.49
2022-07-29T01:02:13.289Z,19.41
2022-07-29T01:04:41.620Z,19.19
2022-07-29T01:07:10.321Z,19.10
2022-07-29T01:09:46.797Z,19.00
2022-07-29T01:12:19.004Z,18.94
2022-07-29T01:14:47.601Z,18.72
2022-07-29T01:17:23.128Z,18.64
2022-07-29T01:19:58.536Z,18.65
2022-07-29T01:22:43.093Z,18.77
2022-07-29T01:25:34.530Z,18.79
2022-07-29T01:28:19.278Z,18.75
2022-07-29T01:30:54.283Z,18.73
2022-07-29T01:33:44.546Z,18.75
2022-07-29T01:36:16.604Z,18.63
2022-07-29T01:38:51.559Z,18.54
2022-07-29T01:41:22.600Z,18.22
2022-07-29T01:43:55.968Z,18.14
2022-07-29T01:46:29.395Z,18.15
2022-07-29T01:49:00.674Z,18.27
2022-07-29T01:51:35.033Z,18.31
2022-07-29T01:54:09.147Z,18.35
2022-07-29T01:56:38.359Z,18.33
2022-07-29T01:59:08.679Z,18.28
2022-07-29T02:01:39.432Z,18.17
2022-07-29T02:04:11.061Z,18.21
2022-07-29T02:06:42.739Z,18.25
2022-07-29T02:09:14.173Z,18.27
2022-07-29T02:11:46.985Z,18.38
2022-07-29T02:14:16.702Z,18.37
2022-07-29T02:16:47.387Z,18.33
2022-07-29T02:19:18.008Z,18.28
2022-07-29T02:21:47.502Z,18.25
2022-07-29T02:24:18.787Z,18.09
2022-07-29T02:26:47.855Z,18.14
2022-07-29T02:29:18.385Z,18.16
2022-07-29T02:31:48.904Z,18.13
2022-07-29T02:34:20.148Z,18.22
2022-07-29T02:36:48.887Z,18.26
2022-07-29T02:39:19.165Z,18.34
2022-07-29T02:41:49.527Z,18.31
2022-07-29T02:44:20.779Z,18.25
2022-07-29T02:46:53.752Z,18.29
2022-07-29T02:49:36.932Z,18.34
2022-07-29T02:52:08.838Z,18.35
2022-07-29T02:54:41.752Z,18.08
2022-07-29T02:57:23.620Z,18.37
2022-07-29T02:59:55.333Z,18.37
2022-07-29T03:02:24.661Z,18.41
2022-07-29T03:04:54.007Z,18.38
2022-07-29T03:07:22.862Z,18.40
2022-07-29T03:09:52.185Z,18.41
2022-07-29T03:12:20.632Z,18.41
2022-07-29T03:14:50.013Z,18.41
2022-07-29T03:17:18.456Z,18.45
2022-07-29T03:19:48.980Z,18.47
2022-07-29T03:22:16.952Z,18.43
2022-07-29T03:24:47.785Z,18.46
2022-07-29T03:27:15.587Z,18.44
2022-07-29T03:29:49.658Z,18.43
2022-07-29T03:32:23.704Z,18.42
2022-07-29T03:34:53.874Z,18.39
2022-07-29T03:37:21.544Z,18.35
2022-07-29T03:39:52.931Z,18.28
2022-07-29T03:42:23.005Z,18.22
2022-07-29T03:44:54.198Z,18.23
2022-07-29T03:47:43.504Z,18.21
2022-07-29T03:50:18.376Z,18.18
2022-07-29T03:52:46.139Z,18.13
2022-07-29T03:55:15.257Z,18.15
2022-07-29T03:57:44.556Z,18.11
2022-07-29T04:00:13.262Z,18.07
2022-07-29T04:02:41.593Z,18.07
2022-07-29T04:05:14.098Z,18.05
2022-07-29T04:07:45.699Z,18.02
2022-07-29T04:10:13.713Z,17.96
2022-07-29T04:12:42.108Z,17.96
2022-07-29T04:15:10.931Z,17.97
2022-07-29T04:17:39.541Z,17.98
2022-07-29T04:20:07.962Z,17.98
2022-07-29T04:22:36.023Z,18.03
2022-07-29T04:25:05.598Z,18.04
2022-07-29T04:27:33.576Z,17.96
2022-07-29T04:30:01.345Z,17.98
2022-07-29T04:32:28.979Z,17.99
2022-07-29T04:34:57.065Z,18.00
2022-07-29T04:37:24.735Z,17.95
2022-07-29T04:39:53.171Z,17.97
2022-07-29T04:42:27.545Z,18.03
2022-07-29T04:44:56.495Z,18.15
2022-07-29T04:47:24.130Z,18.20
2022-07-29T04:49:52.173Z,18.31
2022-07-29T04:52:19.793Z,18.40
2022-07-29T04:54:47.478Z,18.46
2022-07-29T04:57:15.137Z,18.41
2022-07-29T04:59:45.455Z,18.52
2022-07-29T05:02:13.154Z,18.56
2022-07-29T05:04:40.837Z,18.65
2022-07-29T05:07:08.478Z,18.78
2022-07-29T05:09:36.216Z,18.90
2022-07-29T05:12:03.954Z,19.02
2022-07-29T05:14:31.711Z,19.13
2022-07-29T05:17:01.207Z,19.23
2022-07-29T05:19:29.306Z,19.34
2022-07-29T05:21:56.939Z,19.45
2022-07-29T05:24:25.212Z,19.54
2022-07-29T05:26:52.907Z,19.60
2022-07-29T05:29:42.586Z,19.70
2022-07-29T05:32:09.792Z,19.72
2022-07-29T05:34:37.463Z,19.77
2022-07-29T05:37:17.623Z,19.84
2022-07-29T05:39:48.716Z,19.92
2022-07-29T05:42:18.396Z,20.04
2022-07-29T05:44:46.393Z,20.15
2022-07-29T05:47:15.499Z,20.25
2022-07-29T05:49:43.118Z,20.35
2022-07-29T05:52:11.136Z,20.48
2022-07-29T05:54:39.495Z,20.53
2022-07-29T05:57:07.712Z,20.63
2022-07-29T05:59:38.028Z,20.69
2022-07-29T06:02:06.377Z,20.72
2022-07-29T06:04:35.619Z,20.74
2022-07-29T06:07:03.476Z,20.86
2022-07-29T06:09:31.546Z,20.94
2022-07-29T06:11:59.388Z,21.06
2022-07-29T06:14:27.706Z,21.02
2022-07-29T06:16:55.342Z,21.09
2022-07-29T06:19:23.039Z,21.23
2022-07-29T06:21:52.388Z,21.40
2022-07-29T06:24:20.520Z,21.47
2022-07-29T06:26:48.483Z,21.49
2022-07-29T06:29:16.760Z,21.44
2022-07-29T06:31:44.369Z,21.36
2022-07-29T06:34:12.559Z,21.50
2022-07-29T06:36:41.535Z,21.61
2022-07-29T06:39:11.765Z,21.72
2022-07-29T06:41:40.472Z,21.80
2022-07-29T06:44:11.298Z,21.93
2022-07-29T06:46:39.374Z,21.71
2022-07-29T06:49:07.915Z,21.66
2022-07-29T06:51:35.926Z,21.73
2022-07-29T06:54:06.369Z,21.92
2022-07-29T06:56:38.696Z,22.09
2022-07-29T06:59:09.548Z,22.30
2022-07-29T07:01:38.040Z,22.62
2022-07-29T07:04:05.905Z,22.56
2022-07-29T07:06:33.712Z,22.22
2022-07-29T07:09:01.405Z,22.58
2022-07-29T07:11:29.193Z,22.76
2022-07-29T07:14:02.915Z,22.73
2022-07-29T07:16:31.852Z,22.68
2022-07-29T07:19:00.624Z,22.69
2022-07-29T07:21:30.508Z,22.36
2022-07-29T07:23:59.236Z,22.40
2022-07-29T07:26:27.363Z,22.79
2022-07-29T07:28:55.535Z,22.86
2022-07-29T07:31:24.573Z,23.16
2022-07-29T07:33:53.368Z,23.28
2022-07-29T07:36:21.014Z,23.30
2022-07-29T07:38:48.987Z,22.97
2022-07-29T07:41:16.637Z,23.39
2022-07-29T07:43:44.299Z,23.67
2022-07-29T07:46:12.286Z,23.83
2022-07-29T07:48:41.760Z,23.68
2022-07-29T07:51:09.461Z,23.69
2022-07-29T07:53:37.594Z,23.89
2022-07-29T07:56:10.932Z,24.01
2022-07-29T07:58:40.443Z,24.01
2022-07-29T08:01:08.309Z,24.09
2022-07-29T08:03:36.551Z,23.59
2022-07-29T08:06:06.578Z,23.81
2022-07-29T08:08:34.654Z,23.44
2022-07-29T08:11:06.952Z,23.30
2022-07-29T08:13:39.136Z,22.86
2022-07-29T08:16:15.949Z,23.01
2022-07-29T08:18:45.622Z,22.98
2022-07-29T08:21:15.569Z,23.22
2022-07-29T08:23:57.628Z,23.54
2022-07-29T08:26:27.484Z,23.66
2022-07-29T08:28:55.410Z,23.72
2022-07-29T08:31:23.178Z,23.96
2022-07-29T08:33:51.025Z,24.15
2022-07-29T08:36:21.840Z,24.28
2022-07-29T08:38:50.386Z,24.38
2022-07-29T08:41:20.210Z,24.74
2022-07-29T08:43:48.511Z,24.36
2022-07-29T08:46:16.648Z,24.78
2022-07-29T08:48:44.738Z,24.94
2022-07-29T08:51:15.763Z,25.07
2022-07-29T08:53:48.283Z,25.01
2022-07-29T08:56:18.160Z,24.74
2022-07-29T08:58:48.747Z,24.62
2022-07-29T09:01:36.107Z,24.75
2022-07-29T09:04:13.376Z,24.96
2022-07-29T09:06:46.187Z,25.13
2022-07-29T09:09:16.266Z,25.36
2022-07-29T09:11:44.416Z,25.38
2022-07-29T09:14:14.433Z,25.49
2022-07-29T09:16:54.556Z,25.60
2022-07-29T09:19:27.853Z,25.69
2022-07-29T09:22:01.169Z,25.87
2022-07-29T09:24:44.159Z,25.97
2022-07-29T09:27:23.667Z,25.91
2022-07-29T09:29:59.521Z,26.32
2022-07-29T09:32:28.165Z,26.75
2022-07-29T09:35:17.512Z,27.16
2022-07-29T09:37:45.524Z,27.35
2022-07-29T09:40:17.075Z,27.76
2022-07-29T09:42:45.139Z,27.57
2022-07-29T09:45:14.263Z,27.70
2022-07-29T09:47:45.805Z,27.58
2022-07-29T09:50:13.673Z,26.98
2022-07-29T09:52:48.906Z,26.96
2022-07-29T09:55:19.841Z,27.48
2022-07-29T09:57:48.469Z,28.11
2022-07-29T10:00:19.704Z,28.09
2022-07-29T10:02:48.825Z,27.92
2022-07-29T10:05:22.801Z,27.89
2022-07-29T10:07:53.970Z,27.53
2022-07-29T10:10:25.973Z,28.14
2022-07-29T10:12:56.137Z,27.63
2022-07-29T10:15:25.589Z,26.64
2022-07-29T10:17:54.323Z,27.49
2022-07-29T10:20:22.723Z,27.81
2022-07-29T10:22:53.560Z,28.44
2022-07-29T10:25:24.025Z,27.80
2022-07-29T10:27:53.087Z,27.67
2022-07-29T10:30:23.062Z,27.58
2022-07-29T10:33:11.386Z,27.72
2022-07-29T10:35:49.466Z,27.77
2022-07-29T10:41:58.270Z,27.37
2022-07-29T10:44:28.201Z,27.56
2022-07-29T10:46:56.964Z,27.41
2022-07-29T10:49:27.739Z,27.81
2022-07-29T10:52:06.044Z,28.03
2022-07-29T10:54:50.975Z,27.60
2022-07-29T10:57:53.072Z,26.87
2022-07-29T11:00:34.080Z,27.22
2022-07-29T11:03:04.797Z,27.92
2022-07-29T11:05:59.743Z,27.88
2022-07-29T11:08:28.833Z,27.85
2022-07-29T11:11:44.089Z,28.20
2022-07-29T11:14:41.062Z,29.05
2022-07-29T11:17:10.045Z,28.88
2022-07-29T11:19:46.774Z,29.22
2022-07-29T11:22:34.579Z,29.37
2022-07-29T11:25:17.773Z,29.09
2022-07-29T11:27:46.611Z,28.85
2022-07-29T11:30:15.858Z,28.16
2022-07-29T11:32:48.725Z,28.26
2022-07-29T11:35:22.261Z,28.17
2022-07-29T11:38:28.754Z,28.02
2022-07-29T11:41:22.231Z,28.24
2022-07-29T11:43:53.304Z,28.20
2022-07-29T11:46:45.038Z,28.30
2022-07-29T11:49:22.123Z,28.11
2022-07-29T11:52:02.087Z,28.24
2022-07-29T11:54:33.963Z,27.91
2022-07-29T11:57:21.903Z,27.56
2022-07-29T11:59:49.780Z,27.53
2022-07-29T12:02:37.503Z,27.97
2022-07-29T12:05:10.777Z,27.63
2022-07-29T12:07:41.271Z,27.83
2022-07-29T12:10:19.992Z,27.71
2022-07-29T12:12:57.755Z,28.09
2022-07-29T12:15:45.579Z,28.09
2022-07-29T12:18:19.514Z,27.75
2022-07-29T12:20:59.211Z,27.42
2022-07-29T12:23:35.050Z,27.39
2022-07-29T12:26:07.209Z,27.45
2022-07-29T12:28:39.493Z,27.56
2022-07-29T12:31:08.674Z,27.33
2022-07-29T12:33:36.826Z,27.29
2022-07-29T12:36:08.186Z,27.20
2022-07-29T12:38:39.635Z,26.70
2022-07-29T12:41:08.222Z,26.06
2022-07-29T12:43:35.955Z,26.03
2022-07-29T12:46:15.164Z,26.04
2022-07-29T12:48:45.213Z,26.31
2022-07-29T12:51:17.765Z,26.19
2022-07-29T12:54:04.399Z,26.50
2022-07-29T12:56:42.765Z,26.41
2022-07-29T12:59:18.968Z,26.10
2022-07-29T13:01:48.385Z,25.94
2022-07-29T13:04:27.408Z,25.88
2022-07-29T13:07:04.875Z,25.52
2022-07-29T13:09:40.857Z,25.48
2022-07-29T13:12:11.132Z,25.12
2022-07-29T13:14:41.153Z,25.33
2022-07-29T13:17:12.202Z,25.31
2022-07-29T13:19:42.317Z,25.55
2022-07-29T13:22:12.294Z,25.22
2022-07-29T13:24:51.226Z,25.13
2022-07-29T13:27:19.590Z,25.04
2022-07-29T13:29:47.613Z,25.05
2022-07-29T13:32:15.837Z,25.34
2022-07-29T13:34:43.487Z,25.52
2022-07-29T13:37:13.303Z,25.46
2022-07-29T13:39:40.966Z,25.43
2022-07-29T13:42:11.092Z,25.82
2022-07-29T13:44:39.070Z,25.79
2022-07-29T13:47:07.038Z,25.86
2022-07-29T13:49:35.042Z,25.91
2022-07-29T13:52:02.768Z,25.84
2022-07-29T13:54:31.720Z,26.20
2022-07-29T13:57:00.070Z,26.39
2022-07-29T13:59:27.713Z,26.38
2022-07-29T14:01:55.756Z,26.50
2022-07-29T14:04:24.216Z,26.72
2022-07-29T14:06:53.112Z,26.70
2022-07-29T14:09:20.851Z,27.04
2022-07-29T14:11:51.121Z,26.88
2022-07-29T14:14:19.623Z,27.15
2022-07-29T14:16:52.191Z,27.19
2022-07-29T14:19:20.154Z,27.07
2022-07-29T14:21:48.751Z,27.26
2022-07-29T14:24:21.625Z,27.40
2022-07-29T14:26:52.503Z,27.50
2022-07-29T14:29:20.245Z,27.66
2022-07-29T14:31:47.921Z,27.70
2022-07-29T14:34:16.389Z,27.43
2022-07-29T14:36:44.490Z,27.36
2022-07-29T14:39:12.198Z,27.17
2022-07-29T14:41:39.834Z,26.92
2022-07-29T14:44:08.995Z,27.19
2022-07-29T14:46:36.771Z,27.21
2022-07-29T14:49:04.499Z,27.41
2022-07-29T14:51:34.943Z,27.46
2022-07-29T14:54:02.959Z,27.08
2022-07-29T14:56:46.349Z,26.78
2022-07-29T14:59:16.434Z,26.97
2022-07-29T15:01:44.251Z,26.70
2022-07-29T15:04:12.231Z,26.81
2022-07-29T15:06:39.866Z,27.08
2022-07-29T15:09:07.974Z,27.18
2022-07-29T15:11:37.019Z,26.99
2022-07-29T15:14:07.065Z,27.28
2022-07-29T15:16:37.465Z,27.61
2022-07-29T15:19:05.603Z,27.75
2022-07-29T15:21:33.318Z,27.43
2022-07-29T15:24:00.988Z,27.05
2022-07-29T15:26:28.769Z,27.32
2022-07-29T15:28:57.448Z,26.56
2022-07-29T15:31:25.257Z,26.16
2022-07-29T15:33:58.081Z,26.06
2022-07-29T15:36:50.777Z,25.73
2022-07-29T15:39:15.525Z,25.98
2022-07-29T15:41:43.162Z,25.63
2022-07-29T15:44:11.380Z,25.64
2022-07-29T15:46:57.034Z,25.62
2022-07-29T15:49:48.213Z,25.80
2022-07-29T15:52:25.156Z,25.57
2022-07-29T15:54:55.952Z,25.45
2022-07-29T15:57:24.559Z,25.27
2022-07-29T15:59:53.220Z,24.88
2022-07-29T16:02:20.976Z,24.70
2022-07-29T16:04:51.100Z,24.51
2022-07-29T16:07:18.761Z,24.11
2022-07-29T16:09:52.457Z,24.17
2022-07-29T16:12:20.586Z,23.65
2022-07-29T16:14:49.480Z,23.27
2022-07-29T16:17:17.479Z,22.70
2022-07-29T16:19:45.633Z,21.92
2022-07-29T16:22:15.166Z,21.23
2022-07-29T16:24:43.442Z,20.69
2022-07-29T16:27:11.087Z,19.77
2022-07-29T16:29:38.758Z,18.98
2022-07-29T16:32:07.477Z,18.51
2022-07-29T16:34:35.607Z,18.21
2022-07-29T16:37:03.671Z,18.10
2022-07-29T16:39:32.927Z,18.17
2022-07-29T16:42:02.405Z,18.23
2022-07-29T16:44:33.583Z,18.41
2022-07-29T16:47:02.411Z,18.75
2022-07-29T16:49:31.691Z,18.93
2022-07-29T16:51:59.310Z,18.87
2022-07-29T16:54:27.575Z,18.62
2022-07-29T16:56:56.668Z,18.76
2022-07-29T16:59:24.582Z,19.06
2022-07-29T17:01:52.229Z,19.18
2022-07-29T17:04:20.276Z,19.24
2022-07-29T17:06:50.730Z,19.28
2022-07-29T17:09:18.846Z,19.39
2022-07-29T17:11:52.999Z,19.35
2022-07-29T17:14:26.150Z,19.42
2022-07-29T17:17:00.711Z,19.47
2022-07-29T17:19:31.681Z,19.52
2022-07-29T17:22:07.042Z,19.54
2022-07-29T17:24:40.301Z,19.54
2022-07-29T17:27:09.405Z,19.56
2022-07-29T17:29:39.953Z,19.64
2022-07-29T17:32:08.968Z,19.66
2022-07-29T17:34:37.073Z,19.72
2022-07-29T17:37:04.899Z,19.73
2022-07-29T17:39:33.090Z,19.56
2022-07-29T17:42:00.739Z,19.58
2022-07-29T17:44:29.366Z,19.48
2022-07-29T17:46:58.706Z,19.54
2022-07-29T17:49:26.865Z,19.58
2022-07-29T17:51:59.055Z,19.58
2022-07-29T17:54:28.624Z,19.55
2022-07-29T17:56:57.430Z,19.65
2022-07-29T17:59:25.241Z,19.71
2022-07-29T18:01:53.501Z,19.70
2022-07-29T18:04:23.501Z,19.60
2022-07-29T18:06:52.422Z,19.58
2022-07-29T18:09:20.063Z,19.57
2022-07-29T18:11:48.856Z,19.57
2022-07-29T18:14:17.095Z,19.37
2022-07-29T18:16:45.271Z,19.46
2022-07-29T18:19:12.995Z,19.46
2022-07-29T18:21:54.583Z,19.46
2022-07-29T18:24:25.246Z,19.44
2022-07-29T18:26:54.070Z,19.40
2022-07-29T18:29:21.735Z,19.42
2022-07-29T18:31:50.079Z,19.33
2022-07-29T18:34:17.953Z,19.21
2022-07-29T18:36:47.492Z,19.29
2022-07-29T18:39:20.000Z,19.32
2022-07-29T18:41:51.298Z,19.22
2022-07-29T18:44:21.871Z,19.28
2022-07-29T18:46:51.123Z,19.18
2022-07-29T18:49:19.030Z,19.03
2022-07-29T18:51:49.307Z,18.99
2022-07-29T18:54:18.221Z,19.02
2022-07-29T18:56:47.037Z,19.19
2022-07-29T18:59:16.905Z,19.00
2022-07-29T19:01:45.073Z,18.96
2022-07-29T19:04:12.903Z,18.91
2022-07-29T19:06:41.389Z,19.09
2022-07-29T19:09:10.739Z,19.14
2022-07-29T19:11:39.024Z,19.12
2022-07-29T19:14:07.158Z,18.90
2022-07-29T19:16:34.895Z,19.03
2022-07-29T19:19:02.623Z,19.16
2022-07-29T19:21:30.522Z,19.22
2022-07-29T19:24:05.185Z,19.33
2022-07-29T19:26:42.114Z,19.15
2022-07-29T19:29:09.773Z,19.37
2022-07-29T19:31:37.460Z,19.23
2022-07-29T19:34:05.186Z,19.29
2022-07-29T19:36:32.940Z,19.38
2022-07-29T19:39:00.916Z,19.36
2022-07-29T19:41:28.951Z,19.45
2022-07-29T19:43:58.143Z,19.43
2022-07-29T19:46:29.175Z,19.45
2022-07-29T19:48:57.260Z,19.35
2022-07-29T19:51:25.017Z,19.46
2022-07-29T19:53:52.682Z,19.39
2022-07-29T19:56:20.382Z,19.36
2022-07-29T19:58:48.677Z,19.31
2022-07-29T20:01:17.805Z,19.37
2022-07-29T20:03:46.538Z,19.41
2022-07-29T20:06:14.805Z,19.38
2022-07-29T20:08:42.450Z,19.34
2022-07-29T20:11:10.475Z,19.24
2022-07-29T20:13:38.151Z,19.15
2022-07-29T20:16:08.164Z,18.92
2022-07-29T20:18:37.651Z,19.05
2022-07-29T20:21:05.369Z,18.99
2022-07-29T20:23:33.638Z,19.17
2022-07-29T20:26:02.856Z,19.03
2022-07-29T20:28:31.196Z,19.26
2022-07-29T20:30:58.911Z,19.32
2022-07-29T20:33:26.595Z,19.32
2022-07-29T20:35:56.232Z,19.40
2022-07-29T20:38:23.864Z,19.37
2022-07-29T20:40:53.446Z,19.43
2022-07-29T20:43:21.049Z,19.42
2022-07-29T20:45:49.083Z,19.39
2022-07-29T20:48:16.746Z,19.43
2022-07-29T20:50:45.023Z,19.42
2022-07-29T20:53:14.130Z,19.25
2022-07-29T20:55:42.011Z,19.36
2022-07-29T20:58:09.638Z,19.21
2022-07-29T21:00:37.446Z,19.23
2022-07-29T21:03:05.198Z,19.24
2022-07-29T21:05:32.987Z,19.23
2022-07-29T21:08:01.053Z,19.14
2022-07-29T21:10:30.370Z,19.13
2022-07-29T21:12:57.978Z,19.24
2022-07-29T21:15:27.541Z,19.17
2022-07-29T21:18:00.602Z,19.03
2022-07-29T21:20:28.983Z,18.74
2022-07-29T21:22:56.910Z,18.70
2022-07-29T21:25:26.368Z,18.75
2022-07-29T21:28:12.755Z,18.72
2022-07-29T21:30:40.396Z,18.80
2022-07-29T21:33:08.079Z,18.84
2022-07-29T21:36:06.198Z,18.86
2022-07-29T21:38:24.141Z,19.02
2022-07-29T21:40:53.887Z,19.11
2022-07-29T21:43:23.246Z,19.16
2022-07-29T21:45:51.616Z,19.18
2022-07-29T21:48:20.309Z,19.16
2022-07-29T21:50:49.373Z,19.21
2022-07-29T21:53:17.255Z,19.25
2022-07-29T21:55:51.026Z,19.35
2022-07-29T21:58:19.111Z,19.35
2022-07-29T22:00:48.867Z,19.35
2022-07-29T22:03:17.204Z,19.39
2022-07-29T22:05:45.138Z,19.41
2022-07-29T22:08:13.461Z,19.43
2022-07-29T22:10:41.231Z,19.44
2022-07-29T22:13:08.859Z,19.48
2022-07-29T22:15:36.693Z,19.46
2022-07-29T22:18:05.815Z,19.45
2022-07-29T22:20:33.457Z,19.46
2022-07-29T22:23:01.831Z,19.47
2022-07-29T22:25:29.519Z,19.49
2022-07-29T22:27:57.595Z,19.48
2022-07-29T22:30:25.270Z,19.51
2022-07-29T22:32:52.904Z,19.50
2022-07-29T22:35:21.858Z,19.51
2022-07-29T22:37:51.373Z,19.52
2022-07-29T22:40:18.992Z,19.51
2022-07-29T22:42:47.275Z,19.50
2022-07-29T22:45:14.938Z,19.49
2022-07-29T22:47:48.004Z,19.45
2022-07-29T22:50:16.838Z,19.43
2022-07-29T22:52:46.243Z,19.38
2022-07-29T22:55:14.222Z,19.30
2022-07-29T22:57:42.414Z,19.24
2022-07-29T23:00:11.718Z,19.23
2022-07-29T23:02:40.314Z,19.17
2022-07-29T23:05:10.154Z,19.17
2022-07-29T23:07:38.312Z,19.11
2022-07-29T23:10:08.840Z,19.16
2022-07-29T23:12:38.475Z,19.09
2022-07-29T23:15:07.103Z,19.09
2022-07-29T23:17:36.616Z,19.05
2022-07-29T23:20:07.304Z,18.97
2022-07-29T23:22:36.455Z,18.91
2022-07-29T23:25:06.163Z,18.91
2022-07-29T23:27:35.232Z,18.76
2022-07-29T23:30:03.027Z,18.54
2022-07-29T23:32:31.057Z,18.12
2022-07-29T23:34:58.672Z,18.24
2022-07-29T23:37:26.645Z,18.24
2022-07-29T23:39:54.822Z,18.03
2022-07-29T23:42:23.275Z,18.01
2022-07-29T23:44:52.506Z,17.69
2022-07-29T23:47:21.043Z,17.56
2022-07-29T23:49:49.917Z,17.67
2022-07-29T23:52:18.843Z,17.63
2022-07-29T23:54:46.496Z,17.68
2022-07-29T23:57:14.598Z,17.55
2022-07-29T23:59:42.214Z,17.55
